Time;durP1;ratioP1;P1;durP2;ratioP2;P2;SDS_P1;SDS_P2;PMS_P1;PMS_P2;Temp;Humidity;BMP_temperature;BMP_pressure;BME280_temperature;BME280_humidity;BME280_pressure;Samples;Min_cycle;Max_cycle;Signal;HPM_P1;HPM_P2
2021/08/28 00:02:05;;;;;;;7.97;4.70;;;;;;;;;;5007379;28;20240;-85
2021/08/28 00:04:33;;;;;;;15.77;4.43;;;;;;;;;;5011365;28;20353;-84
2021/08/28 00:07:00;;;;;;;6.17;3.97;;;;;;;;;;5009244;28;20232;-85
2021/08/28 00:09:28;;;;;;;12.50;4.50;;;;;;;;;;5008908;28;20255;-84
2021/08/28 00:11:55;;;;;;;12.60;4.70;;;;;;;;;;5012127;28;20620;-83
2021/08/28 00:14:22;;;;;;;10.03;3.87;;;;;;;;;;5016127;28;20267;-83
2021/08/28 00:16:49;;;;;;;8.07;4.57;;;;;;;;;;5012554;28;20247;-83
2021/08/28 00:19:18;;;;;;;13.40;5.40;;;;;;;;;;5016107;28;20327;-84
2021/08/28 00:21:45;;;;;;;9.23;5.30;;;;;;;;;;5013378;28;20292;-84
2021/08/28 00:24:12;;;;;;;9.00;5.37;;;;;;;;;;5013194;28;20236;-83
2021/08/28 00:26:40;;;;;;;10.20;5.03;;;;;;;;;;5010155;28;20276;-83
2021/08/28 00:29:07;;;;;;;11.93;5.53;;;;;;;;;;5011261;28;20869;-84
2021/08/28 00:31:35;;;;;;;11.70;5.47;;;;;;;;;;5013120;28;20266;-83
2021/08/28 00:34:02;;;;;;;8.60;5.60;;;;;;;;;;5011142;28;20315;-83
2021/08/28 00:36:31;;;;;;;10.67;5.90;;;;;;;;;;5009352;28;20201;-83
2021/08/28 00:38:58;;;;;;;10.83;5.80;;;;;;;;;;5012543;28;20228;-83
2021/08/28 00:41:25;;;;;;;10.10;5.90;;;;;;;;;;5009908;28;20248;-84
2021/08/28 00:43:52;;;;;;;6.83;4.57;;;;;;;;;;5011886;28;20275;-84
2021/08/28 00:46:20;;;;;;;12.93;5.80;;;;;;;;;;5008841;28;20688;-84
2021/08/28 00:48:49;;;;;;;9.17;5.23;;;;;;;;;;5012001;28;20307;-84
2021/08/28 00:51:16;;;;;;;12.00;5.80;;;;;;;;;;5016727;28;20208;-84
2021/08/28 00:53:44;;;;;;;12.00;5.80;;;;;;;;;;5014363;28;20278;-83
2021/08/28 00:56:12;;;;;;;14.67;5.50;;;;;;;;;;5013579;28;20964;-83
2021/08/28 00:58:39;;;;;;;12.67;5.67;;;;;;;;;;5012041;28;20224;-84
2021/08/28 01:01:09;;;;;;;9.53;5.43;;;;;;;;;;5015517;28;20692;-84
2021/08/28 01:03:37;;;;;;;13.27;5.97;;;;;;;;;;5013808;28;20352;-83
2021/08/28 01:06:08;;;;;;;11.40;6.30;;;;;;;;;;5013423;28;20311;-84
2021/08/28 01:08:39;;;;;;;12.03;6.00;;;;;;;;;;5013823;28;20233;-83
2021/08/28 01:11:13;;;;;;;14.03;6.10;;;;;;;;;;5015169;28;20247;-84
2021/08/28 01:13:42;;;;;;;12.07;6.70;;;;;;;;;;5016402;28;20279;-83
2021/08/28 01:16:10;;;;;;;9.87;5.70;;;;;;;;;;5017565;28;20219;-82
2021/08/28 01:18:38;;;;;;;15.93;6.10;;;;;;;;;;5029592;28;20209;-81
2021/08/28 01:21:08;;;;;;;11.57;6.03;;;;;;;;;;5029466;28;20227;-81
2021/08/28 01:23:36;;;;;;;11.03;5.57;;;;;;;;;;5019573;28;20211;-83
2021/08/28 01:26:05;;;;;;;12.47;6.30;;;;;;;;;;5014343;28;20673;-84
2021/08/28 01:28:36;;;;;;;9.80;5.17;;;;;;;;;;5010500;28;20237;-84
2021/08/28 01:31:05;;;;;;;12.17;6.50;;;;;;;;;;5010981;28;20695;-84
2021/08/28 01:33:33;;;;;;;9.53;6.10;;;;;;;;;;5010869;28;20530;-84
2021/08/28 01:36:00;;;;;;;11.70;6.27;;;;;;;;;;5011395;28;20257;-84
2021/08/28 01:38:27;;;;;;;9.73;5.97;;;;;;;;;;5014207;28;20307;-84
2021/08/28 01:40:55;;;;;;;10.23;5.67;;;;;;;;;;5016671;28;20205;-84
2021/08/28 01:43:23;;;;;;;9.30;6.17;;;;;;;;;;5012133;28;20213;-84
2021/08/28 01:45:51;;;;;;;19.57;6.50;;;;;;;;;;5012583;28;20204;-86
2021/08/28 01:48:19;;;;;;;12.00;6.33;;;;;;;;;;5009490;28;20256;-83
2021/08/28 01:50:47;;;;;;;12.13;6.57;;;;;;;;;;5007349;28;20215;-83
2021/08/28 01:53:19;;;;;;;9.57;5.83;;;;;;;;;;5011555;28;20209;-84
2021/08/28 01:55:46;;;;;;;17.87;6.50;;;;;;;;;;5008838;28;20291;-83
2021/08/28 01:58:13;;;;;;;15.53;5.67;;;;;;;;;;5008773;28;20292;-83
2021/08/28 02:00:41;;;;;;;11.83;5.27;;;;;;;;;;5012320;28;20247;-83
2021/08/28 02:03:08;;;;;;;11.57;5.37;;;;;;;;;;5011815;28;20219;-84
2021/08/28 02:05:43;;;;;;;10.30;6.17;;;;;;;;;;5008926;28;20204;-83
2021/08/28 02:08:12;;;;;;;10.50;5.73;;;;;;;;;;5015741;28;20270;-84
2021/08/28 02:10:46;;;;;;;10.03;5.40;;;;;;;;;;5004068;28;20240;-83
2021/08/28 02:13:16;;;;;;;11.43;5.40;;;;;;;;;;5000447;28;20219;-83
2021/08/28 02:15:46;;;;;;;10.80;5.70;;;;;;;;;;5004974;28;20323;-83
2021/08/28 02:18:16;;;;;;;15.20;6.47;;;;;;;;;;5006850;28;20239;-83
2021/08/28 02:20:48;;;;;;;11.97;7.20;;;;;;;;;;4999829;28;20295;-83
2021/08/28 02:23:19;;;;;;;13.70;6.73;;;;;;;;;;5004967;28;20299;-84
2021/08/28 02:25:53;;;;;;;12.20;6.90;;;;;;;;;;5004978;28;20620;-83
2021/08/28 02:28:25;;;;;;;14.37;7.27;;;;;;;;;;5002209;28;20228;-83
2021/08/28 02:30:54;;;;;;;10.07;6.43;;;;;;;;;;5004195;28;20716;-83
2021/08/28 02:33:22;;;;;;;12.63;7.00;;;;;;;;;;5003670;28;20236;-83
2021/08/28 02:35:51;;;;;;;11.07;6.70;;;;;;;;;;5003091;28;20602;-84
2021/08/28 02:38:18;;;;;;;13.87;6.40;;;;;;;;;;5007217;28;20669;-83
2021/08/28 02:40:47;;;;;;;15.43;7.00;;;;;;;;;;5001109;28;20218;-83
2021/08/28 02:43:16;;;;;;;11.53;6.47;;;;;;;;;;5003484;28;20263;-84
2021/08/28 02:45:43;;;;;;;13.23;6.97;;;;;;;;;;5010831;28;20220;-83
2021/08/28 02:48:16;;;;;;;12.90;7.20;;;;;;;;;;5010994;28;20268;-83
2021/08/28 02:50:44;;;;;;;15.97;6.77;;;;;;;;;;5007943;28;20216;-83
2021/08/28 02:53:14;;;;;;;12.60;6.57;;;;;;;;;;5014147;28;20205;-83
2021/08/28 02:55:45;;;;;;;11.50;6.27;;;;;;;;;;5013037;28;20280;-85
2021/08/28 02:58:13;;;;;;;11.27;6.20;;;;;;;;;;5016497;28;20228;-84
2021/08/28 03:00:41;;;;;;;11.47;6.07;;;;;;;;;;5025212;28;20192;-83
2021/08/28 03:03:08;;;;;;;12.67;6.23;;;;;;;;;;5026452;28;20188;-82
2021/08/28 03:05:36;;;;;;;11.07;6.20;;;;;;;;;;5019172;28;20252;-83
2021/08/28 03:08:03;;;;;;;12.37;6.37;;;;;;;;;;5004556;28;20292;-83
2021/08/28 03:10:32;;;;;;;11.23;6.30;;;;;;;;;;5007148;28;20212;-83
2021/08/28 03:12:59;;;;;;;12.20;6.40;;;;;;;;;;5006309;28;20269;-83
2021/08/28 03:15:27;;;;;;;14.50;6.50;;;;;;;;;;5006614;28;20243;-84
2021/08/28 03:17:54;;;;;;;12.47;6.60;;;;;;;;;;5010682;28;20438;-84
2021/08/28 03:20:22;;;;;;;9.93;5.83;;;;;;;;;;5006122;28;20235;-83
2021/08/28 03:22:49;;;;;;;14.87;6.17;;;;;;;;;;5006850;28;20235;-84
2021/08/28 03:25:18;;;;;;;10.07;6.20;;;;;;;;;;5010292;28;20273;-84
2021/08/28 03:27:47;;;;;;;12.07;6.60;;;;;;;;;;5010770;28;20232;-84
2021/08/28 03:30:16;;;;;;;10.30;5.93;;;;;;;;;;5004275;28;20677;-83
2021/08/28 03:32:44;;;;;;;11.97;5.17;;;;;;;;;;5007242;28;20224;-84
2021/08/28 03:35:11;;;;;;;9.93;5.50;;;;;;;;;;5009910;28;20220;-83
2021/08/28 03:37:39;;;;;;;8.23;5.13;;;;;;;;;;5009926;28;20263;-83
2021/08/28 03:40:08;;;;;;;10.40;5.37;;;;;;;;;;5006361;28;20883;-84
2021/08/28 03:42:35;;;;;;;11.47;5.37;;;;;;;;;;5008614;28;20248;-84
2021/08/28 03:45:04;;;;;;;9.50;5.43;;;;;;;;;;5007470;28;20288;-84
2021/08/28 03:47:32;;;;;;;9.47;5.63;;;;;;;;;;5007519;28;20263;-83
2021/08/28 03:49:59;;;;;;;9.53;5.50;;;;;;;;;;5011630;28;20215;-84
2021/08/28 03:52:26;;;;;;;8.80;5.27;;;;;;;;;;5007208;28;20207;-84
2021/08/28 03:54:53;;;;;;;12.43;6.20;;;;;;;;;;5007255;28;20227;-83
2021/08/28 03:57:20;;;;;;;11.00;5.97;;;;;;;;;;5010678;28;20271;-83
2021/08/28 03:59:47;;;;;;;9.07;5.83;;;;;;;;;;5006196;28;20650;-84
2021/08/28 04:02:16;;;;;;;14.67;6.03;;;;;;;;;;5009861;28;20640;-84
2021/08/28 04:04:44;;;;;;;13.27;5.90;;;;;;;;;;5008868;28;20220;-84
2021/08/28 04:07:11;;;;;;;13.97;5.60;;;;;;;;;;5009547;28;20232;-84
2021/08/28 04:09:38;;;;;;;13.47;6.13;;;;;;;;;;5010949;28;20307;-84
2021/08/28 04:12:06;;;;;;;14.60;6.73;;;;;;;;;;5009834;28;20296;-84
2021/08/28 04:14:33;;;;;;;9.70;5.90;;;;;;;;;;5006182;28;20669;-83
2021/08/28 04:17:00;;;;;;;10.87;6.57;;;;;;;;;;5007677;28;20209;-82
2021/08/28 04:19:29;;;;;;;16.10;6.17;;;;;;;;;;5009790;28;20232;-84
2021/08/28 04:21:56;;;;;;;12.37;6.70;;;;;;;;;;5009257;28;20655;-83
2021/08/28 04:24:23;;;;;;;10.77;6.50;;;;;;;;;;5010099;28;20393;-83
2021/08/28 04:26:50;;;;;;;11.70;7.27;;;;;;;;;;5010964;28;20240;-83
2021/08/28 04:29:18;;;;;;;15.67;7.20;;;;;;;;;;5007808;28;20252;-84
2021/08/28 04:31:45;;;;;;;12.63;7.67;;;;;;;;;;5014624;28;20239;-84
2021/08/28 04:34:12;;;;;;;12.90;6.87;;;;;;;;;;5013173;28;20243;-83
2021/08/28 04:36:41;;;;;;;14.93;7.03;;;;;;;;;;5005778;28;20294;-85
2021/08/28 04:39:08;;;;;;;12.20;7.40;;;;;;;;;;5010786;28;20268;-84
2021/08/28 04:41:35;;;;;;;11.63;6.80;;;;;;;;;;5014030;28;20216;-82
2021/08/28 04:44:02;;;;;;;11.70;6.80;;;;;;;;;;5025958;28;20219;-82
2021/08/28 04:46:30;;;;;;;16.20;7.73;;;;;;;;;;5028338;28;20209;-82
2021/08/28 04:48:57;;;;;;;11.37;7.30;;;;;;;;;;5014795;28;20232;-85
2021/08/28 04:51:24;;;;;;;14.37;7.33;;;;;;;;;;5009311;28;20783;-84
2021/08/28 04:53:52;;;;;;;14.50;7.50;;;;;;;;;;5006683;28;20212;-83
2021/08/28 04:56:20;;;;;;;13.97;7.17;;;;;;;;;;5009984;28;20316;-84
2021/08/28 04:58:47;;;;;;;14.40;8.37;;;;;;;;;;5010407;28;20331;-82
2021/08/28 05:01:14;;;;;;;12.57;7.40;;;;;;;;;;5013187;28;20292;-82
2021/08/28 05:03:41;;;;;;;12.47;7.20;;;;;;;;;;5008035;28;20638;-83
2021/08/28 05:06:09;;;;;;;15.60;8.23;;;;;;;;;;5009135;28;20666;-84
2021/08/28 05:08:36;;;;;;;13.23;7.97;;;;;;;;;;5012980;28;20233;-83
2021/08/28 05:11:04;;;;;;;14.50;7.57;;;;;;;;;;5006517;28;20231;-83
2021/08/28 05:13:32;;;;;;;16.23;9.50;;;;;;;;;;5012179;28;20685;-83
2021/08/28 05:15:59;;;;;;;17.13;8.80;;;;;;;;;;5007456;28;20252;-82
2021/08/28 05:18:26;;;;;;;17.43;8.73;;;;;;;;;;5011826;28;20288;-82
2021/08/28 05:20:53;;;;;;;14.87;8.87;;;;;;;;;;5005024;28;20214;-83
2021/08/28 05:23:20;;;;;;;15.90;8.90;;;;;;;;;;5011870;28;20272;-83
2021/08/28 05:25:48;;;;;;;16.77;9.13;;;;;;;;;;5008330;28;20659;-82
2021/08/28 05:28:16;;;;;;;19.63;9.50;;;;;;;;;;5009774;28;20287;-82
2021/08/28 05:30:43;;;;;;;22.37;10.07;;;;;;;;;;5004072;28;20248;-83
2021/08/28 05:33:11;;;;;;;19.17;10.03;;;;;;;;;;5008970;28;20607;-83
2021/08/28 05:35:38;;;;;;;18.87;10.30;;;;;;;;;;5007068;28;20639;-82
2021/08/28 05:38:05;;;;;;;18.43;9.47;;;;;;;;;;5005956;28;20704;-82
2021/08/28 05:40:32;;;;;;;17.90;10.07;;;;;;;;;;5002552;28;20212;-83
2021/08/28 05:42:59;;;;;;;18.60;9.67;;;;;;;;;;5004951;28;20287;-82
2021/08/28 05:45:28;;;;;;;17.37;10.73;;;;;;;;;;5004008;28;20209;-83
2021/08/28 05:47:55;;;;;;;17.57;10.37;;;;;;;;;;5005107;28;20315;-83
2021/08/28 05:50:22;;;;;;;18.90;9.73;;;;;;;;;;5009414;28;20231;-83
2021/08/28 05:52:49;;;;;;;17.37;9.33;;;;;;;;;;5007924;28;20287;-83
2021/08/28 05:55:17;;;;;;;16.77;8.00;;;;;;;;;;5011094;28;20215;-82
2021/08/28 05:57:44;;;;;;;20.33;9.17;;;;;;;;;;5007321;28;20228;-83
2021/08/28 06:00:11;;;;;;;16.17;8.07;;;;;;;;;;5009143;28;20216;-83
2021/08/28 06:02:40;;;;;;;13.93;8.00;;;;;;;;;;5001335;28;20228;-82
2021/08/28 06:05:08;;;;;;;16.33;8.83;;;;;;;;;;5005148;28;20250;-82
2021/08/28 06:07:35;;;;;;;19.00;9.10;;;;;;;;;;5007502;28;20607;-82
2021/08/28 06:10:02;;;;;;;15.43;8.73;;;;;;;;;;5004797;28;20602;-83
2021/08/28 06:12:30;;;;;;;18.80;8.87;;;;;;;;;;5010226;28;20744;-83
2021/08/28 06:14:57;;;;;;;13.87;8.53;;;;;;;;;;5008881;28;20280;-83
2021/08/28 06:17:24;;;;;;;17.93;8.90;;;;;;;;;;5008615;28;20331;-82
2021/08/28 06:19:52;;;;;;;14.03;8.77;;;;;;;;;;5013761;28;20278;-83
2021/08/28 06:22:20;;;;;;;14.37;8.20;;;;;;;;;;5009812;28;20200;-82
2021/08/28 06:24:47;;;;;;;13.17;8.27;;;;;;;;;;5021763;28;20214;-81
2021/08/28 06:27:14;;;;;;;13.43;8.43;;;;;;;;;;5029945;28;20223;-81
2021/08/28 06:29:41;;;;;;;12.13;7.67;;;;;;;;;;5025728;28;20189;-81
2021/08/28 06:32:08;;;;;;;14.17;7.77;;;;;;;;;;5013644;28;20204;-83
2021/08/28 06:34:35;;;;;;;14.80;7.47;;;;;;;;;;5007315;28;20299;-84
2021/08/28 06:37:04;;;;;;;11.00;6.20;;;;;;;;;;5007448;28;20629;-83
2021/08/28 06:39:32;;;;;;;11.53;6.10;;;;;;;;;;5008732;28;20337;-84
2021/08/28 06:41:59;;;;;;;11.63;6.83;;;;;;;;;;5008236;28;20221;-83
2021/08/28 06:44:27;;;;;;;12.03;6.40;;;;;;;;;;5004434;28;20251;-83
2021/08/28 06:46:54;;;;;;;9.53;5.63;;;;;;;;;;5007225;28;20236;-83
2021/08/28 06:49:21;;;;;;;6.40;4.83;;;;;;;;;;5005391;28;20308;-83
2021/08/28 06:51:48;;;;;;;9.83;6.20;;;;;;;;;;5005759;28;20687;-83
2021/08/28 06:54:17;;;;;;;9.70;5.97;;;;;;;;;;5007972;28;20229;-84
2021/08/28 06:56:45;;;;;;;8.40;5.80;;;;;;;;;;5009073;28;20243;-83
2021/08/28 06:59:12;;;;;;;11.93;6.50;;;;;;;;;;5005897;28;20225;-83
2021/08/28 07:01:40;;;;;;;9.00;6.27;;;;;;;;;;5009538;28;20243;-84
2021/08/28 07:04:07;;;;;;;9.63;6.37;;;;;;;;;;5008067;28;20511;-83
2021/08/28 07:06:34;;;;;;;6.27;4.40;;;;;;;;;;5011310;28;20208;-84
2021/08/28 07:09:03;;;;;;;10.80;7.10;;;;;;;;;;5005311;28;20232;-84
2021/08/28 07:11:31;;;;;;;9.80;6.47;;;;;;;;;;5007770;28;20274;-83
2021/08/28 07:13:59;;;;;;;11.07;6.87;;;;;;;;;;5007426;28;20217;-84
2021/08/28 07:16:26;;;;;;;13.17;7.50;;;;;;;;;;5008351;28;20228;-84
2021/08/28 07:18:53;;;;;;;13.57;7.30;;;;;;;;;;5005608;28;20228;-84
2021/08/28 07:21:21;;;;;;;16.77;7.30;;;;;;;;;;5010329;28;20235;-83
2021/08/28 07:23:48;;;;;;;13.00;7.70;;;;;;;;;;5004709;28;20288;-83
2021/08/28 07:26:16;;;;;;;11.97;7.40;;;;;;;;;;5009682;28;20239;-83
2021/08/28 07:28:45;;;;;;;12.43;7.17;;;;;;;;;;5012009;28;20251;-83
2021/08/28 07:31:12;;;;;;;11.30;7.50;;;;;;;;;;5006769;28;20224;-83
2021/08/28 07:33:39;;;;;;;10.67;7.20;;;;;;;;;;5008531;28;20219;-84
2021/08/28 07:36:06;;;;;;;14.73;7.27;;;;;;;;;;5008873;28;20219;-84
2021/08/28 07:38:34;;;;;;;11.23;6.73;;;;;;;;;;5007054;28;20743;-84
2021/08/28 07:41:01;;;;;;;12.60;6.67;;;;;;;;;;5010844;28;20236;-83
2021/08/28 07:43:29;;;;;;;12.33;6.60;;;;;;;;;;5011160;28;20606;-83
2021/08/28 07:45:57;;;;;;;9.27;5.83;;;;;;;;;;5008810;28;20213;-83
2021/08/28 07:48:25;;;;;;;8.60;5.87;;;;;;;;;;5012196;28;20503;-84
2021/08/28 07:50:52;;;;;;;9.13;5.57;;;;;;;;;;5006660;28;20209;-84
2021/08/28 07:53:19;;;;;;;13.87;6.10;;;;;;;;;;5009965;28;20625;-84
2021/08/28 07:55:47;;;;;;;10.13;6.00;;;;;;;;;;5009248;28;20205;-84
2021/08/28 07:58:14;;;;;;;10.03;5.40;;;;;;;;;;5011697;28;20319;-84
2021/08/28 08:00:41;;;;;;;7.50;4.93;;;;;;;;;;5008933;28;20228;-83
2021/08/28 08:03:09;;;;;;;7.83;5.30;;;;;;;;;;5011732;28;20243;-84
2021/08/28 08:05:37;;;;;;;7.27;4.60;;;;;;;;;;5011425;28;20208;-84
2021/08/28 08:08:04;;;;;;;7.67;4.73;;;;;;;;;;5028971;28;20224;-82
2021/08/28 08:10:31;;;;;;;6.77;4.70;;;;;;;;;;5023375;28;20200;-82
2021/08/28 08:12:59;;;;;;;6.17;4.43;;;;;;;;;;5017757;28;20264;-84
2021/08/28 08:15:27;;;;;;;11.73;5.40;;;;;;;;;;5013828;28;20228;-84
2021/08/28 08:17:54;;;;;;;13.07;5.70;;;;;;;;;;5011124;28;20698;-85
2021/08/28 08:20:24;;;;;;;8.30;5.33;;;;;;;;;;5008180;28;20200;-82
2021/08/28 08:22:51;;;;;;;10.77;6.60;;;;;;;;;;5013210;28;20211;-85
2021/08/28 08:25:19;;;;;;;11.37;5.40;;;;;;;;;;5009971;28;20232;-84
2021/08/28 08:27:46;;;;;;;7.90;4.07;;;;;;;;;;5004374;28;20221;-84
2021/08/28 08:30:13;;;;;;;6.50;2.63;;;;;;;;;;5003594;28;20232;-85
2021/08/28 08:32:41;;;;;;;7.03;3.07;;;;;;;;;;5009691;28;20644;-85
2021/08/28 08:35:08;;;;;;;4.67;2.90;;;;;;;;;;5013026;28;20200;-86
2021/08/28 08:37:37;;;;;;;5.50;2.07;;;;;;;;;;5007913;28;20606;-85
2021/08/28 08:40:04;;;;;;;4.63;2.30;;;;;;;;;;5010040;28;20773;-86
2021/08/28 08:42:33;;;;;;;3.70;2.10;;;;;;;;;;5011902;28;20681;-85
2021/08/28 08:45:01;;;;;;;4.73;1.40;;;;;;;;;;5010182;28;20220;-85
2021/08/28 08:47:29;;;;;;;1.80;1.43;;;;;;;;;;5011808;28;20212;-86
2021/08/28 08:49:56;;;;;;;4.50;1.67;;;;;;;;;;5010050;28;20595;-86
2021/08/28 08:52:24;;;;;;;2.07;1.50;;;;;;;;;;5009061;28;20248;-84
2021/08/28 08:54:53;;;;;;;5.17;2.10;;;;;;;;;;5006534;28;20236;-86
2021/08/28 08:57:20;;;;;;;3.33;1.27;;;;;;;;;;5010238;28;20547;-86
2021/08/28 08:59:48;;;;;;;2.43;1.37;;;;;;;;;;5009718;28;20204;-85
2021/08/28 09:02:15;;;;;;;1.40;1.20;;;;;;;;;;5013079;28;20254;-87
2021/08/28 09:04:42;;;;;;;2.70;1.20;;;;;;;;;;5011346;28;20232;-85
2021/08/28 09:07:12;;;;;;;2.07;1.33;;;;;;;;;;5011900;28;20295;-85
2021/08/28 09:09:40;;;;;;;2.50;0.97;;;;;;;;;;5004898;28;20280;-84
2021/08/28 09:12:11;;;;;;;1.80;1.10;;;;;;;;;;5007695;28;20258;-84
2021/08/28 09:14:39;;;;;;;2.50;1.30;;;;;;;;;;5005398;28;20236;-85
2021/08/28 09:17:15;;;;;;;1.43;1.10;;;;;;;;;;5005410;28;20592;-85
2021/08/28 09:19:43;;;;;;;2.00;1.07;;;;;;;;;;5007930;28;20261;-86
2021/08/28 09:22:21;;;;;;;3.27;1.27;;;;;;;;;;5006163;28;20292;-86
2021/08/28 09:24:49;;;;;;;1.50;1.00;;;;;;;;;;5006812;28;20295;-84
2021/08/28 09:27:32;;;;;;;1.57;1.00;;;;;;;;;;5010420;28;20236;-84
2021/08/28 09:29:59;;;;;;;2.97;0.80;;;;;;;;;;5007376;28;20212;-84
2021/08/28 09:32:27;;;;;;;3.13;1.23;;;;;;;;;;5010426;28;20325;-85
2021/08/28 09:34:54;;;;;;;2.90;1.20;;;;;;;;;;5007980;28;20208;-84
2021/08/28 09:37:30;;;;;;;1.90;1.20;;;;;;;;;;5013365;28;20236;-84
2021/08/28 09:40:01;;;;;;;3.60;0.97;;;;;;;;;;5013048;28;20200;-85
2021/08/28 09:42:29;;;;;;;1.20;0.90;;;;;;;;;;5011795;28;20208;-85
2021/08/28 09:44:56;;;;;;;1.10;1.00;;;;;;;;;;5013064;28;20201;-84
2021/08/28 09:47:24;;;;;;;1.67;0.90;;;;;;;;;;5018635;28;20283;-84
2021/08/28 09:49:54;;;;;;;2.03;1.20;;;;;;;;;;5028170;28;20208;-83
2021/08/28 09:52:23;;;;;;;1.20;0.90;;;;;;;;;;5030605;28;20224;-83
2021/08/28 09:54:50;;;;;;;1.47;0.70;;;;;;;;;;5017665;28;20205;-85
2021/08/28 09:57:18;;;;;;;1.47;0.60;;;;;;;;;;5007335;28;20653;-85
2021/08/28 09:59:46;;;;;;;1.63;0.90;;;;;;;;;;5004772;28;20247;-84
2021/08/28 10:02:17;;;;;;;1.33;0.97;;;;;;;;;;5012246;28;20232;-83
2021/08/28 10:04:51;;;;;;;1.73;0.90;;;;;;;;;;5009641;28;20221;-85
2021/08/28 10:07:22;;;;;;;1.47;0.80;;;;;;;;;;5009362;28;20204;-85
2021/08/28 10:09:51;;;;;;;1.37;0.90;;;;;;;;;;5010387;28;20222;-87
2021/08/28 10:12:20;;;;;;;1.33;0.70;;;;;;;;;;5006258;28;20581;-87
2021/08/28 10:14:49;;;;;;;1.27;0.70;;;;;;;;;;5010661;28;20247;-84
2021/08/28 10:17:16;;;;;;;1.27;1.00;;;;;;;;;;5012008;28;20230;-85
2021/08/28 10:19:44;;;;;;;1.03;0.90;;;;;;;;;;5011111;28;20240;-85
2021/08/28 10:22:14;;;;;;;1.57;1.07;;;;;;;;;;5011108;28;20217;-85
2021/08/28 10:24:43;;;;;;;1.43;1.07;;;;;;;;;;5013473;28;20299;-85
2021/08/28 10:27:10;;;;;;;0.80;0.70;;;;;;;;;;5009214;28;20224;-84
2021/08/28 10:29:37;;;;;;;1.30;0.80;;;;;;;;;;5011532;28;20287;-84
2021/08/28 10:32:06;;;;;;;1.43;0.90;;;;;;;;;;5011867;28;20209;-85
2021/08/28 10:34:34;;;;;;;2.83;1.10;;;;;;;;;;5010818;28;20298;-85
2021/08/28 10:37:01;;;;;;;2.13;0.87;;;;;;;;;;5011692;28;20252;-85
2021/08/28 10:39:29;;;;;;;0.87;0.70;;;;;;;;;;5009792;28;20228;-85
2021/08/28 10:41:56;;;;;;;2.40;1.00;;;;;;;;;;5011542;28;20673;-85
2021/08/28 10:44:24;;;;;;;5.47;1.00;;;;;;;;;;5012739;28;20336;-85
2021/08/28 10:46:51;;;;;;;1.37;0.87;;;;;;;;;;5013802;28;20584;-85
2021/08/28 10:49:22;;;;;;;2.20;0.70;;;;;;;;;;5013112;28;20212;-84
2021/08/28 10:51:55;;;;;;;5.80;0.90;;;;;;;;;;5009592;28;20619;-84
2021/08/28 10:54:28;;;;;;;1.10;0.90;;;;;;;;;;5006843;28;20217;-84
2021/08/28 10:56:57;;;;;;;1.30;0.90;;;;;;;;;;5012013;28;20630;-84
2021/08/28 10:59:26;;;;;;;2.10;0.90;;;;;;;;;;5007162;28;20298;-85
2021/08/28 11:02:03;;;;;;;1.33;0.80;;;;;;;;;;5011256;28;20204;-85
2021/08/28 11:04:41;;;;;;;1.20;0.90;;;;;;;;;;5011236;28;20207;-85
2021/08/28 11:07:32;;;;;;;3.07;1.00;;;;;;;;;;5010055;28;20197;-85
2021/08/28 11:10:17;;;;;;;1.63;1.10;;;;;;;;;;4995410;28;20204;-85
2021/08/28 11:12:49;;;;;;;1.50;1.20;;;;;;;;;;5008732;28;20204;-85
2021/08/28 11:15:35;;;;;;;2.17;1.10;;;;;;;;;;5009196;28;20235;-82
2021/08/28 11:18:04;;;;;;;2.27;0.73;;;;;;;;;;5010530;28;20232;-84
2021/08/28 11:20:35;;;;;;;1.43;1.00;;;;;;;;;;5006828;28;20209;-84
2021/08/28 11:23:03;;;;;;;1.00;0.80;;;;;;;;;;5010943;28;20710;-85
2021/08/28 11:25:31;;;;;;;1.53;1.00;;;;;;;;;;5011252;28;20220;-84
2021/08/28 11:27:59;;;;;;;0.80;0.70;;;;;;;;;;5011625;28;20299;-83
2021/08/28 11:30:41;;;;;;;2.77;0.90;;;;;;;;;;5009884;28;20262;-82
2021/08/28 11:33:10;;;;;;;1.20;0.90;;;;;;;;;;5026157;28;20216;-83
2021/08/28 11:35:42;;;;;;;1.10;0.60;;;;;;;;;;5027314;28;20227;-83
2021/08/28 11:38:11;;;;;;;0.77;0.70;;;;;;;;;;5011757;28;20290;-84
2021/08/28 11:40:38;;;;;;;2.63;0.93;;;;;;;;;;5006832;28;20200;-84
2021/08/28 11:43:06;;;;;;;2.57;0.90;;;;;;;;;;5011334;28;20212;-84
2021/08/28 11:45:35;;;;;;;1.63;0.90;;;;;;;;;;5010968;28;20208;-84
2021/08/28 11:48:07;;;;;;;4.20;0.90;;;;;;;;;;5010558;28;20259;-84
2021/08/28 11:50:35;;;;;;;1.00;0.70;;;;;;;;;;5012172;28;20205;-84
2021/08/28 11:53:04;;;;;;;3.23;1.90;;;;;;;;;;5004695;28;20299;-84
2021/08/28 11:55:34;;;;;;;4.07;1.20;;;;;;;;;;5003749;28;20207;-84
2021/08/28 11:58:03;;;;;;;1.53;0.90;;;;;;;;;;5005349;28;20232;-84
2021/08/28 12:00:31;;;;;;;1.40;0.97;;;;;;;;;;5003847;28;20228;-84
2021/08/28 12:02:58;;;;;;;3.13;1.10;;;;;;;;;;5003546;28;20209;-84
2021/08/28 12:05:26;;;;;;;1.67;0.90;;;;;;;;;;5007857;28;20303;-84
2021/08/28 12:07:53;;;;;;;3.43;1.20;;;;;;;;;;5013326;28;20773;-84
2021/08/28 12:10:22;;;;;;;2.23;1.20;;;;;;;;;;5010378;28;20703;-84
2021/08/28 12:12:57;;;;;;;2.77;1.10;;;;;;;;;;5012476;28;20231;-84
2021/08/28 12:15:24;;;;;;;3.43;1.10;;;;;;;;;;5012378;28;20226;-84
2021/08/28 12:17:51;;;;;;;0.90;0.70;;;;;;;;;;5012592;28;20319;-84
2021/08/28 12:20:23;;;;;;;2.90;1.00;;;;;;;;;;5010222;28;20287;-84
2021/08/28 12:22:51;;;;;;;3.83;0.90;;;;;;;;;;5011394;28;20228;-84
2021/08/28 12:25:18;;;;;;;1.57;1.00;;;;;;;;;;5009706;28;20732;-84
2021/08/28 12:27:47;;;;;;;1.97;1.00;;;;;;;;;;5011268;28;20220;-84
2021/08/28 12:30:15;;;;;;;2.33;0.97;;;;;;;;;;5007145;28;20216;-84
2021/08/28 12:32:42;;;;;;;1.73;0.93;;;;;;;;;;5008291;28;20295;-83
2021/08/28 12:35:10;;;;;;;1.60;0.77;;;;;;;;;;5008710;28;20562;-84
2021/08/28 12:37:38;;;;;;;1.47;1.10;;;;;;;;;;5010070;28;20249;-83
2021/08/28 12:40:09;;;;;;;1.10;0.80;;;;;;;;;;5012021;28;20216;-84
2021/08/28 12:42:37;;;;;;;0.60;0.57;;;;;;;;;;5010134;28;20224;-85
2021/08/28 12:45:07;;;;;;;1.77;0.90;;;;;;;;;;5011633;28;20203;-82
2021/08/28 12:47:37;;;;;;;1.20;0.70;;;;;;;;;;5011309;28;20282;-84
2021/08/28 12:50:05;;;;;;;1.20;0.70;;;;;;;;;;5012203;28;20275;-84
2021/08/28 12:52:36;;;;;;;2.97;0.60;;;;;;;;;;5015625;28;20270;-84
2021/08/28 12:55:04;;;;;;;3.17;0.77;;;;;;;;;;5013498;28;20262;-84
2021/08/28 12:57:32;;;;;;;0.80;0.63;;;;;;;;;;5014229;28;20252;-85
2021/08/28 13:00:00;;;;;;;0.60;0.50;;;;;;;;;;5015633;28;20216;-83
2021/08/28 13:02:30;;;;;;;1.40;0.70;;;;;;;;;;5016638;28;20231;-83
2021/08/28 13:04:58;;;;;;;2.30;0.70;;;;;;;;;;5016123;28;20209;-83
2021/08/28 13:07:34;;;;;;;0.90;0.60;;;;;;;;;;5015442;28;20512;-84
2021/08/28 13:10:07;;;;;;;1.67;0.60;;;;;;;;;;5016883;28;20204;-83
2021/08/28 13:12:42;;;;;;;1.30;0.63;;;;;;;;;;5018203;28;20247;-84
2021/08/28 13:15:10;;;;;;;1.50;0.70;;;;;;;;;;5030220;28;20267;-83
2021/08/28 13:17:40;;;;;;;1.23;0.60;;;;;;;;;;5029965;28;20213;-81
2021/08/28 13:20:08;;;;;;;1.87;0.73;;;;;;;;;;5029094;28;20212;-84
2021/08/28 13:22:39;;;;;;;2.90;0.60;;;;;;;;;;5012437;28;20201;-85
2021/08/28 13:25:07;;;;;;;1.07;0.50;;;;;;;;;;5011556;28;20300;-84
2021/08/28 13:27:41;;;;;;;2.93;0.60;;;;;;;;;;5009220;28;20318;-84
2021/08/28 13:30:19;;;;;;;0.40;0.40;;;;;;;;;;5011142;28;20227;-85
2021/08/28 13:33:02;;;;;;;2.80;0.40;;;;;;;;;;5010846;28;20212;-84
2021/08/28 13:35:31;;;;;;;1.03;0.70;;;;;;;;;;5012557;28;20254;-83
2021/08/28 13:37:58;;;;;;;1.20;0.60;;;;;;;;;;5009846;28;20294;-83
2021/08/28 13:40:26;;;;;;;1.27;0.50;;;;;;;;;;5010032;28;20201;-85
2021/08/28 13:42:53;;;;;;;1.27;0.57;;;;;;;;;;5011665;28;20243;-82
2021/08/28 13:45:20;;;;;;;3.07;0.40;;;;;;;;;;5013612;28;20617;-85
2021/08/28 13:47:48;;;;;;;0.70;0.50;;;;;;;;;;5016953;28;20291;-84
2021/08/28 13:50:17;;;;;;;2.10;0.70;;;;;;;;;;5013162;28;20200;-83
2021/08/28 13:52:44;;;;;;;2.07;0.43;;;;;;;;;;5019640;28;20212;-84
2021/08/28 13:55:12;;;;;;;3.50;0.40;;;;;;;;;;5016649;28;20272;-84
2021/08/28 13:57:40;;;;;;;1.70;0.70;;;;;;;;;;5015955;28;20224;-84
2021/08/28 14:00:08;;;;;;;0.57;0.40;;;;;;;;;;5020834;28;20204;-85
2021/08/28 14:02:35;;;;;;;0.53;0.40;;;;;;;;;;5021553;28;20209;-84
2021/08/28 14:05:04;;;;;;;2.20;0.43;;;;;;;;;;5017989;28;20677;-85
2021/08/28 14:07:32;;;;;;;0.47;0.33;;;;;;;;;;5017260;28;20216;-85
2021/08/28 14:10:00;;;;;;;1.00;0.40;;;;;;;;;;5019117;28;20200;-84
2021/08/28 14:12:27;;;;;;;0.90;0.50;;;;;;;;;;5020702;28;20251;-85
2021/08/28 14:14:55;;;;;;;0.90;0.40;;;;;;;;;;5019604;28;20208;-84
2021/08/28 14:17:22;;;;;;;1.60;0.40;;;;;;;;;;5015379;28;20291;-84
2021/08/28 14:19:49;;;;;;;0.63;0.50;;;;;;;;;;5016394;28;20251;-86
2021/08/28 14:22:16;;;;;;;0.90;0.60;;;;;;;;;;5015854;28;20201;-84
2021/08/28 14:24:45;;;;;;;3.50;1.10;;;;;;;;;;5017276;28;20227;-84
2021/08/28 14:27:12;;;;;;;0.67;0.53;;;;;;;;;;5016439;28;20208;-84
2021/08/28 14:29:39;;;;;;;1.47;0.53;;;;;;;;;;5017518;28;20239;-83
2021/08/28 14:32:07;;;;;;;0.70;0.40;;;;;;;;;;5017767;28;20212;-82
2021/08/28 14:34:34;;;;;;;1.57;0.50;;;;;;;;;;5018034;28;20695;-83
2021/08/28 14:37:02;;;;;;;1.60;0.50;;;;;;;;;;5018100;28;20240;-83
2021/08/28 14:39:29;;;;;;;1.73;0.50;;;;;;;;;;5015349;28;20236;-84
2021/08/28 14:41:57;;;;;;;0.80;0.47;;;;;;;;;;5020050;28;20295;-83
2021/08/28 14:44:26;;;;;;;2.83;0.50;;;;;;;;;;5015504;28;20262;-84